sensor_id;sensor_type;location;lat;lon;timestamp;pressure;altitude;pressure_sealevel;temperature;humidity
23261;BME280;11799;47.740;-3.390;2023-02-01T00:00:44;103089.16;;;7.44;93.42
23261;BME280;11799;47.740;-3.390;2023-02-01T00:03:10;103090.09;;;7.42;93.68
23261;BME280;11799;47.740;-3.390;2023-02-01T00:05:36;103091.91;;;7.40;93.26
23261;BME280;11799;47.740;-3.390;2023-02-01T00:08:02;103092.88;;;7.36;92.64
23261;BME280;11799;47.740;-3.390;2023-02-01T00:10:27;103092.97;;;7.33;92.99
23261;BME280;11799;47.740;-3.390;2023-02-01T00:12:53;103094.75;;;7.32;92.68
23261;BME280;11799;47.740;-3.390;2023-02-01T00:15:18;103094.81;;;7.29;92.76
23261;BME280;11799;47.740;-3.390;2023-02-01T00:17:44;103092.41;;;7.21;92.11
23261;BME280;11799;47.740;-3.390;2023-02-01T00:20:10;103099.47;;;7.19;92.21
23261;BME280;11799;47.740;-3.390;2023-02-01T00:22:36;103099.59;;;7.15;91.88
23261;BME280;11799;47.740;-3.390;2023-02-01T00:25:02;103086.50;;;7.13;92.57
23261;BME280;11799;47.740;-3.390;2023-02-01T00:27:27;103094.50;;;7.09;91.97
23261;BME280;11799;47.740;-3.390;2023-02-01T00:29:54;103092.88;;;7.05;92.25
23261;BME280;11799;47.740;-3.390;2023-02-01T00:32:20;103093.75;;;7.04;92.42
23261;BME280;11799;47.740;-3.390;2023-02-01T00:34:46;103093.84;;;7.01;91.54
23261;BME280;11799;47.740;-3.390;2023-02-01T00:37:12;103087.72;;;7.00;92.29
23261;BME280;11799;47.740;-3.390;2023-02-01T00:39:37;103093.06;;;6.97;92.17
23261;BME280;11799;47.740;-3.390;2023-02-01T00:42:03;103089.53;;;6.98;92.16
23261;BME280;11799;47.740;-3.390;2023-02-01T00:44:29;103078.41;;;6.90;91.60
23261;BME280;11799;47.740;-3.390;2023-02-01T00:46:58;103088.09;;;6.88;92.48
23261;BME280;11799;47.740;-3.390;2023-02-01T00:49:24;103087.22;;;6.87;92.40
23261;BME280;11799;47.740;-3.390;2023-02-01T00:51:49;103085.50;;;6.86;91.82
23261;BME280;11799;47.740;-3.390;2023-02-01T00:54:15;103082.91;;;6.85;91.93
23261;BME280;11799;47.740;-3.390;2023-02-01T00:56:41;103081.19;;;6.84;92.50
23261;BME280;11799;47.740;-3.390;2023-02-01T00:59:10;103087.25;;;6.86;91.96
23261;BME280;11799;47.740;-3.390;2023-02-01T01:01:36;103087.34;;;6.83;92.67
23261;BME280;11799;47.740;-3.390;2023-02-01T01:04:01;103078.72;;;6.78;91.96
23261;BME280;11799;47.740;-3.390;2023-02-01T01:06:29;103070.84;;;6.78;92.63
23261;BME280;11799;47.740;-3.390;2023-02-01T01:08:59;103070.81;;;6.79;91.86
23261;BME280;11799;47.740;-3.390;2023-02-01T01:11:27;103065.63;;;6.76;92.26
23261;BME280;11799;47.740;-3.390;2023-02-01T01:13:55;103071.78;;;6.75;92.69
23261;BME280;11799;47.740;-3.390;2023-02-01T01:16:22;103066.66;;;6.71;92.31
23261;BME280;11799;47.740;-3.390;2023-02-01T01:18:48;103070.19;;;6.70;91.96
23261;BME280;11799;47.740;-3.390;2023-02-01T01:21:15;103064.06;;;6.69;92.55
23261;BME280;11799;47.740;-3.390;2023-02-01T01:23:42;103067.59;;;6.68;92.24
23261;BME280;11799;47.740;-3.390;2023-02-01T01:26:10;103065.06;;;6.63;92.77
23261;BME280;11799;47.740;-3.390;2023-02-01T01:28:37;103059.00;;;6.61;92.73
23261;BME280;11799;47.740;-3.390;2023-02-01T01:31:03;103061.72;;;6.58;92.10
23261;BME280;11799;47.740;-3.390;2023-02-01T01:33:29;103067.03;;;6.55;92.05
23261;BME280;11799;47.740;-3.390;2023-02-01T01:35:54;103053.75;;;6.61;91.81
23261;BME280;11799;47.740;-3.390;2023-02-01T01:38:20;103054.66;;;6.60;92.60
23261;BME280;11799;47.740;-3.390;2023-02-01T01:40:47;103053.91;;;6.55;92.10
23261;BME280;11799;47.740;-3.390;2023-02-01T01:43:14;103052.25;;;6.51;92.07
23261;BME280;11799;47.740;-3.390;2023-02-01T01:45:41;103067.13;;;6.52;91.71
23261;BME280;11799;47.740;-3.390;2023-02-01T01:48:13;103062.88;;;6.47;91.76
23261;BME280;11799;47.740;-3.390;2023-02-01T01:51:08;103055.06;;;6.44;91.61
23261;BME280;11799;47.740;-3.390;2023-02-01T01:53:39;103074.34;;;6.43;91.80
23261;BME280;11799;47.740;-3.390;2023-02-01T01:56:08;103069.94;;;6.45;91.80
23261;BME280;11799;47.740;-3.390;2023-02-01T01:58:34;103067.34;;;6.43;91.82
23261;BME280;11799;47.740;-3.390;2023-02-01T02:01:00;103070.84;;;6.42;92.44
23261;BME280;11799;47.740;-3.390;2023-02-01T02:03:30;103066.47;;;6.43;92.71
23261;BME280;11799;47.740;-3.390;2023-02-01T02:06:00;103069.06;;;6.44;92.28
23261;BME280;11799;47.740;-3.390;2023-02-01T02:08:28;103074.34;;;6.43;92.08
23261;BME280;11799;47.740;-3.390;2023-02-01T02:10:54;103078.66;;;6.45;92.96
23261;BME280;11799;47.740;-3.390;2023-02-01T02:13:36;103083.91;;;6.45;92.07
23261;BME280;11799;47.740;-3.390;2023-02-01T02:22:25;103090.72;;;6.52;92.26
23261;BME280;11799;47.740;-3.390;2023-02-01T02:27:51;103091.56;;;6.54;92.79
23261;BME280;11799;47.740;-3.390;2023-02-01T02:30:31;103089.72;;;6.58;92.92
23261;BME280;11799;47.740;-3.390;2023-02-01T02:43:45;103062.50;;;6.62;92.18
23261;BME280;11799;47.740;-3.390;2023-02-01T02:46:38;103062.53;;;6.60;92.92
23261;BME280;11799;47.740;-3.390;2023-02-01T02:52:06;103070.38;;;6.62;92.30
23261;BME280;11799;47.740;-3.390;2023-02-01T02:54:54;103071.22;;;6.62;92.07
23261;BME280;11799;47.740;-3.390;2023-02-01T02:57:31;103073.00;;;6.62;92.54
23261;BME280;11799;47.740;-3.390;2023-02-01T03:00:22;103074.69;;;6.65;92.04
23261;BME280;11799;47.740;-3.390;2023-02-01T03:03:08;103072.09;;;6.63;91.83
23261;BME280;11799;47.740;-3.390;2023-02-01T03:05:52;103079.06;;;6.64;91.85
23261;BME280;11799;47.740;-3.390;2023-02-01T03:08:24;103075.53;;;6.65;92.02
23261;BME280;11799;47.740;-3.390;2023-02-01T03:10:59;103079.00;;;6.67;91.97
23261;BME280;11799;47.740;-3.390;2023-02-01T03:21:39;103085.06;;;6.69;91.08
23261;BME280;11799;47.740;-3.390;2023-02-01T03:24:12;103084.13;;;6.72;91.35
23261;BME280;11799;47.740;-3.390;2023-02-01T03:26:45;103089.34;;;6.73;90.94
23261;BME280;11799;47.740;-3.390;2023-02-01T03:29:17;103094.50;;;6.76;91.14
23261;BME280;11799;47.740;-3.390;2023-02-01T03:31:44;103083.16;;;6.76;90.65
23261;BME280;11799;47.740;-3.390;2023-02-01T03:34:11;103081.34;;;6.78;90.32
23261;BME280;11799;47.740;-3.390;2023-02-01T03:36:48;103076.09;;;6.78;89.96
23261;BME280;11799;47.740;-3.390;2023-02-01T03:41:43;103083.06;;;6.79;89.15
23261;BME280;11799;47.740;-3.390;2023-02-01T03:44:22;103080.41;;;6.80;89.56
23261;BME280;11799;47.740;-3.390;2023-02-01T03:46:59;103087.34;;;6.83;89.66
23261;BME280;11799;47.740;-3.390;2023-02-01T03:49:41;103078.59;;;6.82;89.15
23261;BME280;11799;47.740;-3.390;2023-02-01T03:52:15;103071.59;;;6.83;88.84
23261;BME280;11799;47.740;-3.390;2023-02-01T03:54:42;103077.66;;;6.85;89.23
23261;BME280;11799;47.740;-3.390;2023-02-01T03:57:16;103071.53;;;6.84;88.65
23261;BME280;11799;47.740;-3.390;2023-02-01T03:59:46;103070.66;;;6.85;88.50
23261;BME280;11799;47.740;-3.390;2023-02-01T04:02:12;103070.59;;;6.87;88.03
23261;BME280;11799;47.740;-3.390;2023-02-01T04:04:38;103073.28;;;6.85;88.41
23261;BME280;11799;47.740;-3.390;2023-02-01T04:07:04;103074.94;;;6.88;88.26
23261;BME280;11799;47.740;-3.390;2023-02-01T04:09:30;103067.03;;;6.89;88.44
23261;BME280;11799;47.740;-3.390;2023-02-01T04:11:55;103070.66;;;6.85;87.46
23261;BME280;11799;47.740;-3.390;2023-02-01T04:14:21;103066.22;;;6.87;nan
23261;BME280;11799;47.740;-3.390;2023-02-01T04:16:46;103073.19;;;6.88;87.68
23261;BME280;11799;47.740;-3.390;2023-02-01T04:19:12;103081.88;;;6.90;87.59
23261;BME280;11799;47.740;-3.390;2023-02-01T04:21:37;103081.88;;;6.90;87.46
23261;BME280;11799;47.740;-3.390;2023-02-01T04:24:03;103085.38;;;6.91;87.27
23261;BME280;11799;47.740;-3.390;2023-02-01T04:26:29;103080.13;;;6.91;87.88
23261;BME280;11799;47.740;-3.390;2023-02-01T04:28:55;103096.72;;;6.93;88.06
23261;BME280;11799;47.740;-3.390;2023-02-01T04:31:20;103089.66;;;6.93;87.77
23261;BME280;11799;47.740;-3.390;2023-02-01T04:33:54;103081.78;;;6.93;87.81
23261;BME280;11799;47.740;-3.390;2023-02-01T04:36:23;103094.09;;;6.93;87.41
23261;BME280;11799;47.740;-3.390;2023-02-01T04:38:50;103081.78;;;6.93;87.24
23261;BME280;11799;47.740;-3.390;2023-02-01T04:41:15;103088.75;;;6.94;87.45
23261;BME280;11799;47.740;-3.390;2023-02-01T04:43:47;103091.38;;;6.94;87.11
23261;BME280;11799;47.740;-3.390;2023-02-01T04:46:14;103091.38;;;6.94;87.10
23261;BME280;11799;47.740;-3.390;2023-02-01T04:48:40;103081.75;;;6.95;86.87
23261;BME280;11799;47.740;-3.390;2023-02-01T04:51:05;103096.63;;;6.94;87.09
23261;BME280;11799;47.740;-3.390;2023-02-01T04:53:31;103097.47;;;6.96;86.26
23261;BME280;11799;47.740;-3.390;2023-02-01T04:55:57;103091.25;;;6.99;87.09
23261;BME280;11799;47.740;-3.390;2023-02-01T04:58:23;103093.94;;;6.97;86.71
23261;BME280;11799;47.740;-3.390;2023-02-01T05:00:48;103099.13;;;6.99;86.20
23261;BME280;11799;47.740;-3.390;2023-02-01T05:03:15;103102.66;;;6.98;86.06
23261;BME280;11799;47.740;-3.390;2023-02-01T05:05:41;103101.78;;;6.99;86.70
23261;BME280;11799;47.740;-3.390;2023-02-01T05:08:06;103105.25;;;7.00;86.18
23261;BME280;11799;47.740;-3.390;2023-02-01T05:10:32;103102.63;;;7.00;86.32
23261;BME280;11799;47.740;-3.390;2023-02-01T05:12:57;103106.94;;;7.02;86.65
23261;BME280;11799;47.740;-3.390;2023-02-01T05:15:42;103110.44;;;7.03;86.34
23261;BME280;11799;47.740;-3.390;2023-02-01T05:18:07;103111.28;;;7.03;86.11
23261;BME280;11799;47.740;-3.390;2023-02-01T05:20:33;103111.34;;;7.02;85.75
23261;BME280;11799;47.740;-3.390;2023-02-01T05:22:58;103112.19;;;7.02;86.60
23261;BME280;11799;47.740;-3.390;2023-02-01T05:25:24;103112.16;;;7.04;86.36
23261;BME280;11799;47.740;-3.390;2023-02-01T05:27:49;103113.03;;;7.04;85.45
23261;BME280;11799;47.740;-3.390;2023-02-01T05:30:15;103117.38;;;7.05;85.64
23261;BME280;11799;47.740;-3.390;2023-02-01T05:32:41;103109.41;;;7.08;86.01
23261;BME280;11799;47.740;-3.390;2023-02-01T05:35:07;103115.50;;;7.10;86.08
23261;BME280;11799;47.740;-3.390;2023-02-01T05:37:32;103123.38;;;7.10;85.35
23261;BME280;11799;47.740;-3.390;2023-02-01T05:39:58;103128.63;;;7.10;85.13
23261;BME280;11799;47.740;-3.390;2023-02-01T05:42:24;103126.00;;;7.10;85.11
23261;BME280;11799;47.740;-3.390;2023-02-01T05:44:49;103125.97;;;7.12;85.18
23261;BME280;11799;47.740;-3.390;2023-02-01T05:47:15;103126.81;;;7.12;85.20
23261;BME280;11799;47.740;-3.390;2023-02-01T05:49:41;103132.06;;;7.12;85.48
23261;BME280;11799;47.740;-3.390;2023-02-01T05:52:06;103130.28;;;7.14;85.45
23261;BME280;11799;47.740;-3.390;2023-02-01T05:54:32;103124.13;;;7.15;85.52
23261;BME280;11799;47.740;-3.390;2023-02-01T05:56:57;103126.75;;;7.15;85.67
23261;BME280;11799;47.740;-3.390;2023-02-01T05:59:23;103125.88;;;7.15;85.09
23261;BME280;11799;47.740;-3.390;2023-02-01T06:01:48;103125.00;;;7.14;85.53
23261;BME280;11799;47.740;-3.390;2023-02-01T06:04:14;103125.91;;;7.13;85.13
23261;BME280;11799;47.740;-3.390;2023-02-01T06:06:40;103138.16;;;7.14;84.98
23261;BME280;11799;47.740;-3.390;2023-02-01T06:09:05;103149.53;;;7.15;85.67
23261;BME280;11799;47.740;-3.390;2023-02-01T06:11:31;103147.81;;;7.14;86.04
23261;BME280;11799;47.740;-3.390;2023-02-01T06:13:57;103153.06;;;7.14;86.24
23261;BME280;11799;47.740;-3.390;2023-02-01T06:16:23;103144.31;;;7.13;85.75
23261;BME280;11799;47.740;-3.390;2023-02-01T06:18:48;103134.69;;;7.12;86.16
23261;BME280;11799;47.740;-3.390;2023-02-01T06:21:14;103140.78;;;7.14;85.42
23261;BME280;11799;47.740;-3.390;2023-02-01T06:23:50;103137.28;;;7.14;85.87
23261;BME280;11799;47.740;-3.390;2023-02-01T06:26:16;103139.84;;;7.17;86.43
23261;BME280;11799;47.740;-3.390;2023-02-01T06:28:43;103148.59;;;7.17;86.65
23261;BME280;11799;47.740;-3.390;2023-02-01T06:31:09;103143.31;;;7.17;86.70
23261;BME280;11799;47.740;-3.390;2023-02-01T06:33:35;103144.16;;;7.19;87.22
23261;BME280;11799;47.740;-3.390;2023-02-01T06:36:03;103145.91;;;7.19;86.96
23261;BME280;11799;47.740;-3.390;2023-02-01T06:38:30;103152.91;;;7.20;87.54
23261;BME280;11799;47.740;-3.390;2023-02-01T06:40:57;103146.78;;;7.19;87.14
23261;BME280;11799;47.740;-3.390;2023-02-01T06:43:25;103146.69;;;7.22;87.56
23261;BME280;11799;47.740;-3.390;2023-02-01T06:45:51;103152.03;;;7.19;87.09
23261;BME280;11799;47.740;-3.390;2023-02-01T06:48:17;103159.06;;;7.19;87.32
23261;BME280;11799;47.740;-3.390;2023-02-01T06:50:43;103157.38;;;7.16;87.08
23261;BME280;11799;47.740;-3.390;2023-02-01T06:53:09;103153.03;;;7.15;87.59
23261;BME280;11799;47.740;-3.390;2023-02-01T06:55:35;103157.41;;;7.15;86.84
23261;BME280;11799;47.740;-3.390;2023-02-01T06:58:00;103163.50;;;7.17;87.41
23261;BME280;11799;47.740;-3.390;2023-02-01T07:00:28;103153.81;;;7.19;87.25
23261;BME280;11799;47.740;-3.390;2023-02-01T07:02:54;103157.38;;;7.16;86.73
23261;BME280;11799;47.740;-3.390;2023-02-01T07:05:20;103161.72;;;7.17;86.62
23261;BME280;11799;47.740;-3.390;2023-02-01T07:07:46;103163.44;;;7.18;86.97
23261;BME280;11799;47.740;-3.390;2023-02-01T07:10:12;103160.81;;;7.18;87.25
23261;BME280;11799;47.740;-3.390;2023-02-01T07:12:38;103155.47;;;7.21;87.44
23261;BME280;11799;47.740;-3.390;2023-02-01T07:15:05;103159.00;;;7.20;87.07
23261;BME280;11799;47.740;-3.390;2023-02-01T07:17:30;103164.19;;;7.23;86.51
23261;BME280;11799;47.740;-3.390;2023-02-01T07:19:56;103163.31;;;7.23;86.97
23261;BME280;11799;47.740;-3.390;2023-02-01T07:22:23;103149.28;;;7.24;86.83
23261;BME280;11799;47.740;-3.390;2023-02-01T07:24:49;103144.88;;;7.24;86.31
23261;BME280;11799;47.740;-3.390;2023-02-01T07:27:15;103151.00;;;7.25;86.03
23261;BME280;11799;47.740;-3.390;2023-02-01T07:29:40;103149.25;;;7.25;86.50
23261;BME280;11799;47.740;-3.390;2023-02-01T07:32:06;103143.13;;;7.25;86.10
23261;BME280;11799;47.740;-3.390;2023-02-01T07:34:31;103139.59;;;7.26;86.28
23261;BME280;11799;47.740;-3.390;2023-02-01T07:36:58;103131.72;;;7.26;85.08
23261;BME280;11799;47.740;-3.390;2023-02-01T07:39:23;103135.16;;;7.28;85.82
23261;BME280;11799;47.740;-3.390;2023-02-01T07:41:49;103135.16;;;7.28;85.72
23261;BME280;11799;47.740;-3.390;2023-02-01T07:44:14;103133.44;;;7.27;85.99
23261;BME280;11799;47.740;-3.390;2023-02-01T07:46:40;103133.47;;;7.25;85.20
23261;BME280;11799;47.740;-3.390;2023-02-01T07:49:06;103132.66;;;7.23;85.37
23261;BME280;11799;47.740;-3.390;2023-02-01T07:51:31;103134.34;;;7.26;84.98
23261;BME280;11799;47.740;-3.390;2023-02-01T07:53:57;103128.19;;;7.27;85.66
23261;BME280;11799;47.740;-3.390;2023-02-01T07:56:23;103129.94;;;7.26;85.37
23261;BME280;11799;47.740;-3.390;2023-02-01T07:58:51;103132.56;;;7.26;85.00
23261;BME280;11799;47.740;-3.390;2023-02-01T08:01:20;103135.25;;;7.25;85.71
23261;BME280;11799;47.740;-3.390;2023-02-01T08:03:47;103133.47;;;7.25;85.83
23261;BME280;11799;47.740;-3.390;2023-02-01T08:06:13;103136.94;;;7.27;85.06
23261;BME280;11799;47.740;-3.390;2023-02-01T08:08:39;103144.00;;;7.25;85.37
23261;BME280;11799;47.740;-3.390;2023-02-01T08:11:06;103150.19;;;7.23;85.04
23261;BME280;11799;47.740;-3.390;2023-02-01T08:13:33;103153.59;;;7.26;85.72
23261;BME280;11799;47.740;-3.390;2023-02-01T08:16:00;103150.03;;;7.29;85.48
23261;BME280;11799;47.740;-3.390;2023-02-01T08:18:26;103151.00;;;7.25;85.74
23261;BME280;11799;47.740;-3.390;2023-02-01T08:20:52;103158.84;;;7.26;86.06
23261;BME280;11799;47.740;-3.390;2023-02-01T08:23:18;103164.94;;;7.28;86.13
23261;BME280;11799;47.740;-3.390;2023-02-01T08:25:44;103157.91;;;7.29;86.13
23261;BME280;11799;47.740;-3.390;2023-02-01T08:28:10;103160.53;;;7.29;85.92
23261;BME280;11799;47.740;-3.390;2023-02-01T08:30:37;103172.72;;;7.32;86.57
23261;BME280;11799;47.740;-3.390;2023-02-01T08:33:07;103170.06;;;7.33;85.73
23261;BME280;11799;47.740;-3.390;2023-02-01T08:35:38;103172.63;;;7.36;86.55
23261;BME280;11799;47.740;-3.390;2023-02-01T08:38:04;103168.22;;;7.37;86.37
23261;BME280;11799;47.740;-3.390;2023-02-01T08:40:30;103176.94;;;7.39;86.48
23261;BME280;11799;47.740;-3.390;2023-02-01T08:42:56;103179.56;;;7.39;86.02
23261;BME280;11799;47.740;-3.390;2023-02-01T08:45:25;103183.91;;;7.40;86.52
23261;BME280;11799;47.740;-3.390;2023-02-01T08:47:52;103181.25;;;7.41;85.73
23261;BME280;11799;47.740;-3.390;2023-02-01T08:50:19;103176.88;;;7.40;85.65
23261;BME280;11799;47.740;-3.390;2023-02-01T08:52:45;103176.88;;;7.40;86.11
23261;BME280;11799;47.740;-3.390;2023-02-01T08:55:12;103177.78;;;7.39;85.69
23261;BME280;11799;47.740;-3.390;2023-02-01T08:57:38;103176.69;;;7.48;85.53
23261;BME280;11799;47.740;-3.390;2023-02-01T09:00:08;103179.09;;;7.54;85.86
23261;BME280;11799;47.740;-3.390;2023-02-01T09:02:35;103183.28;;;7.61;86.47
23261;BME280;11799;47.740;-3.390;2023-02-01T09:05:00;103182.25;;;7.67;85.28
23261;BME280;11799;47.740;-3.390;2023-02-01T09:07:26;103189.91;;;7.76;85.27
23261;BME280;11799;47.740;-3.390;2023-02-01T09:09:52;103180.88;;;7.84;84.92
23261;BME280;11799;47.740;-3.390;2023-02-01T09:12:20;103185.94;;;7.92;83.94
23261;BME280;11799;47.740;-3.390;2023-02-01T09:14:46;103188.34;;;8.00;83.96
23261;BME280;11799;47.740;-3.390;2023-02-01T09:17:11;103185.41;;;8.09;83.60
23261;BME280;11799;47.740;-3.390;2023-02-01T09:19:39;103185.13;;;8.18;83.87
23261;BME280;11799;47.740;-3.390;2023-02-01T09:22:04;103192.84;;;8.24;82.92
23261;BME280;11799;47.740;-3.390;2023-02-01T09:24:30;103194.38;;;8.31;82.89
23261;BME280;11799;47.740;-3.390;2023-02-01T09:26:56;103195.97;;;8.38;82.95
23261;BME280;11799;47.740;-3.390;2023-02-01T09:29:21;103198.34;;;8.46;81.54
23261;BME280;11799;47.740;-3.390;2023-02-01T09:31:47;103204.28;;;8.52;81.55
23261;BME280;11799;47.740;-3.390;2023-02-01T09:34:12;103204.97;;;8.59;81.24
23261;BME280;11799;47.740;-3.390;2023-02-01T09:36:38;103207.28;;;8.68;80.92
23261;BME280;11799;47.740;-3.390;2023-02-01T09:39:04;103212.22;;;8.79;80.57
23261;BME280;11799;47.740;-3.390;2023-02-01T09:46:35;103224.44;;;9.08;78.78
23261;BME280;11799;47.740;-3.390;2023-02-01T09:49:08;103230.47;;;9.11;80.23
23261;BME280;11799;47.740;-3.390;2023-02-01T09:51:42;103225.91;;;9.16;77.65
23261;BME280;11799;47.740;-3.390;2023-02-01T09:54:15;103236.31;;;9.21;77.99
23261;BME280;11799;47.740;-3.390;2023-02-01T09:56:47;103227.47;;;9.22;76.04
23261;BME280;11799;47.740;-3.390;2023-02-01T10:01:53;103226.47;;;9.24;77.37
23261;BME280;11799;47.740;-3.390;2023-02-01T10:04:19;103215.94;;;9.24;76.46
23261;BME280;11799;47.740;-3.390;2023-02-01T10:12:33;103237.88;;;9.25;79.51
23261;BME280;11799;47.740;-3.390;2023-02-01T10:20:29;103233.56;;;9.24;79.37
23261;BME280;11799;47.740;-3.390;2023-02-01T10:26:17;103228.34;;;9.22;78.28
23261;BME280;11799;47.740;-3.390;2023-02-01T10:28:44;103233.56;;;9.24;78.79
23261;BME280;11799;47.740;-3.390;2023-02-01T10:31:11;103230.06;;;9.23;78.66
23261;BME280;11799;47.740;-3.390;2023-02-01T10:33:48;103231.84;;;9.23;79.12
23261;BME280;11799;47.740;-3.390;2023-02-01T10:36:28;103237.09;;;9.23;79.56
23261;BME280;11799;47.740;-3.390;2023-02-01T10:38:57;103240.66;;;9.22;77.72
23261;BME280;11799;47.740;-3.390;2023-02-01T10:41:26;103245.03;;;9.23;78.68
23261;BME280;11799;47.740;-3.390;2023-02-01T10:43:57;103241.47;;;9.24;78.54
23261;BME280;11799;47.740;-3.390;2023-02-01T10:46:24;103245.03;;;9.23;78.55
23261;BME280;11799;47.740;-3.390;2023-02-01T10:48:53;103235.25;;;9.25;78.61
23261;BME280;11799;47.740;-3.390;2023-02-01T10:51:42;103237.03;;;9.24;78.07
23261;BME280;11799;47.740;-3.390;2023-02-01T10:54:20;103247.53;;;9.26;77.63
23261;BME280;11799;47.740;-3.390;2023-02-01T10:56:47;103242.25;;;9.26;77.50
23261;BME280;11799;47.740;-3.390;2023-02-01T10:59:18;103243.13;;;9.26;78.91
23261;BME280;11799;47.740;-3.390;2023-02-01T11:01:46;103237.78;;;9.28;79.81
23261;BME280;11799;47.740;-3.390;2023-02-01T11:04:14;103243.91;;;9.28;79.79
23261;BME280;11799;47.740;-3.390;2023-02-01T11:06:53;103248.28;;;9.30;79.85
23261;BME280;11799;47.740;-3.390;2023-02-01T11:09:30;103244.72;;;9.31;79.58
23261;BME280;11799;47.740;-3.390;2023-02-01T11:11:58;103243.81;;;9.32;79.28
23261;BME280;11799;47.740;-3.390;2023-02-01T11:19:39;103258.72;;;9.33;78.86
23261;BME280;11799;47.740;-3.390;2023-02-01T11:22:12;103248.22;;;9.31;78.48
23261;BME280;11799;47.740;-3.390;2023-02-01T11:24:40;103253.44;;;9.33;78.78
23261;BME280;11799;47.740;-3.390;2023-02-01T11:27:17;103251.63;;;9.35;79.54
23261;BME280;11799;47.740;-3.390;2023-02-01T11:29:45;103259.53;;;9.35;80.25
23261;BME280;11799;47.740;-3.390;2023-02-01T11:32:13;103259.47;;;9.36;80.36
23261;BME280;11799;47.740;-3.390;2023-02-01T11:34:47;103257.75;;;9.35;80.66
23261;BME280;11799;47.740;-3.390;2023-02-01T11:37:59;103257.72;;;9.37;80.74
23261;BME280;11799;47.740;-3.390;2023-02-01T11:43:00;103257.66;;;9.38;80.41
23261;BME280;11799;47.740;-3.390;2023-02-01T11:45:32;103255.88;;;9.39;80.36
23261;BME280;11799;47.740;-3.390;2023-02-01T11:48:10;103257.56;;;9.41;79.43
23261;BME280;11799;47.740;-3.390;2023-02-01T11:53:37;103245.19;;;9.43;78.85
23261;BME280;11799;47.740;-3.390;2023-02-01T11:59:20;103231.03;;;9.46;78.66
23261;BME280;11799;47.740;-3.390;2023-02-01T12:08:31;103226.34;;;9.54;77.66
23261;BME280;11799;47.740;-3.390;2023-02-01T12:16:49;103212.78;;;9.65;76.61
23261;BME280;11799;47.740;-3.390;2023-02-01T12:19:32;103207.50;;;9.65;76.14
23261;BME280;11799;47.740;-3.390;2023-02-01T12:22:12;103208.31;;;9.67;74.24
23261;BME280;11799;47.740;-3.390;2023-02-01T12:33:18;103186.00;;;9.75;75.25
23261;BME280;11799;47.740;-3.390;2023-02-01T12:36:09;103184.16;;;9.77;76.33
23261;BME280;11799;47.740;-3.390;2023-02-01T12:42:20;103177.78;;;9.83;75.41
23261;BME280;11799;47.740;-3.390;2023-02-01T12:47:50;103167.97;;;9.86;75.41
23261;BME280;11799;47.740;-3.390;2023-02-01T12:50:55;103155.50;;;9.90;74.15
23261;BME280;11799;47.740;-3.390;2023-02-01T12:58:58;103157.19;;;9.92;71.67
23261;BME280;11799;47.740;-3.390;2023-02-01T13:01:36;103161.53;;;9.93;73.38
23261;BME280;11799;47.740;-3.390;2023-02-01T13:09:43;103143.00;;;9.95;71.65
23261;BME280;11799;47.740;-3.390;2023-02-01T13:12:15;103129.81;;;9.95;73.04
23261;BME280;11799;47.740;-3.390;2023-02-01T13:17:20;103121.59;;;10.03;72.38
23261;BME280;11799;47.740;-3.390;2023-02-01T13:25:14;103114.91;;;10.16;69.92
23261;BME280;11799;47.740;-3.390;2023-02-01T13:27:41;103105.06;;;10.21;70.69
23261;BME280;11799;47.740;-3.390;2023-02-01T13:36:06;103095.97;;;10.28;71.97
23261;BME280;11799;47.740;-3.390;2023-02-01T13:38:42;103098.50;;;10.31;70.33
23261;BME280;11799;47.740;-3.390;2023-02-01T13:43:55;103088.84;;;10.30;72.56
23261;BME280;11799;47.740;-3.390;2023-02-01T13:46:22;103096.59;;;10.35;70.33
23261;BME280;11799;47.740;-3.390;2023-02-01T13:51:14;103090.44;;;10.34;71.25
23261;BME280;11799;47.740;-3.390;2023-02-01T13:53:47;103097.50;;;10.34;69.69
23261;BME280;11799;47.740;-3.390;2023-02-01T13:56:15;103093.88;;;10.36;68.46
23261;BME280;11799;47.740;-3.390;2023-02-01T13:58:43;103088.66;;;10.35;69.81
23261;BME280;11799;47.740;-3.390;2023-02-01T14:03:59;103093.94;;;10.35;71.11
23261;BME280;11799;47.740;-3.390;2023-02-01T14:09:31;103103.66;;;10.34;68.33
23261;BME280;11799;47.740;-3.390;2023-02-01T14:11:58;103099.28;;;10.33;70.44
23261;BME280;11799;47.740;-3.390;2023-02-01T14:19:24;103097.88;;;10.24;69.12
23261;BME280;11799;47.740;-3.390;2023-02-01T14:21:55;103094.44;;;10.22;67.73
23261;BME280;11799;47.740;-3.390;2023-02-01T14:24:32;103095.44;;;10.18;66.67
23261;BME280;11799;47.740;-3.390;2023-02-01T14:27:13;103099.00;;;10.17;66.26
23261;BME280;11799;47.740;-3.390;2023-02-01T14:29:45;103094.78;;;10.13;67.08
23261;BME280;11799;47.740;-3.390;2023-02-01T14:32:22;103103.63;;;10.12;68.24
23261;BME280;11799;47.740;-3.390;2023-02-01T14:34:56;103105.44;;;10.10;68.10
23261;BME280;11799;47.740;-3.390;2023-02-01T14:40:16;103108.34;;;10.04;68.89
23261;BME280;11799;47.740;-3.390;2023-02-01T14:42:49;103104.91;;;10.02;68.85
23261;BME280;11799;47.740;-3.390;2023-02-01T14:47:50;103106.84;;;9.97;69.46
23261;BME280;11799;47.740;-3.390;2023-02-01T15:01:30;103107.16;;;9.89;69.40
23261;BME280;11799;47.740;-3.390;2023-02-01T15:04:16;103112.47;;;9.88;70.80
23261;BME280;11799;47.740;-3.390;2023-02-01T15:06:58;103107.25;;;9.86;69.84
23261;BME280;11799;47.740;-3.390;2023-02-01T15:14:37;103101.34;;;9.81;69.45
23261;BME280;11799;47.740;-3.390;2023-02-01T15:17:18;103096.06;;;9.81;68.70
23261;BME280;11799;47.740;-3.390;2023-02-01T15:19:59;103098.75;;;9.80;68.67
23261;BME280;11799;47.740;-3.390;2023-02-01T15:22:26;103101.38;;;9.80;68.90
23261;BME280;11799;47.740;-3.390;2023-02-01T15:24:53;103104.94;;;9.79;69.13
23261;BME280;11799;47.740;-3.390;2023-02-01T15:27:19;103104.09;;;9.78;69.54
23261;BME280;11799;47.740;-3.390;2023-02-01T15:29:45;103105.00;;;9.77;70.24
23261;BME280;11799;47.740;-3.390;2023-02-01T15:32:33;103106.78;;;9.77;69.80
23261;BME280;11799;47.740;-3.390;2023-02-01T15:35:00;103104.16;;;9.77;70.11
23261;BME280;11799;47.740;-3.390;2023-02-01T15:37:27;103107.69;;;9.76;70.21
23261;BME280;11799;47.740;-3.390;2023-02-01T15:42:55;103107.81;;;9.73;70.24